sensor_id;sensor_type;location;lat;lon;timestamp;P1;durP1;ratioP1;P2;durP2;ratioP2
6791;SDS011;3433;48.730;9.108;2023-03-17T00:00:49;9.03;;;6.03;;
6791;SDS011;3433;48.730;9.108;2023-03-17T00:03:18;13.90;;;6.43;;
6791;SDS011;3433;48.730;9.108;2023-03-17T00:05:50;10.70;;;6.20;;
6791;SDS011;3433;48.730;9.108;2023-03-17T00:08:19;8.90;;;5.83;;
6791;SDS011;3433;48.730;9.108;2023-03-17T00:10:47;11.50;;;6.00;;
6791;SDS011;3433;48.730;9.108;2023-03-17T00:13:15;9.93;;;6.10;;
6791;SDS011;3433;48.730;9.108;2023-03-17T00:15:42;9.73;;;5.80;;
6791;SDS011;3433;48.730;9.108;2023-03-17T00:18:10;8.60;;;5.80;;
6791;SDS011;3433;48.730;9.108;2023-03-17T00:20:40;8.23;;;5.47;;
6791;SDS011;3433;48.730;9.108;2023-03-17T00:23:10;8.93;;;5.50;;
6791;SDS011;3433;48.730;9.108;2023-03-17T00:25:41;8.93;;;6.20;;
6791;SDS011;3433;48.730;9.108;2023-03-17T00:28:12;8.20;;;4.73;;
6791;SDS011;3433;48.730;9.108;2023-03-17T00:30:42;7.90;;;5.20;;
6791;SDS011;3433;48.730;9.108;2023-03-17T00:33:09;7.70;;;5.83;;
6791;SDS011;3433;48.730;9.108;2023-03-17T00:35:36;10.40;;;5.70;;
6791;SDS011;3433;48.730;9.108;2023-03-17T00:38:05;8.00;;;5.43;;
6791;SDS011;3433;48.730;9.108;2023-03-17T00:40:36;11.77;;;5.37;;
6791;SDS011;3433;48.730;9.108;2023-03-17T00:43:03;8.73;;;5.50;;
6791;SDS011;3433;48.730;9.108;2023-03-17T00:45:32;8.83;;;4.97;;
6791;SDS011;3433;48.730;9.108;2023-03-17T00:47:59;11.03;;;6.13;;
6791;SDS011;3433;48.730;9.108;2023-03-17T00:50:27;6.73;;;4.90;;
6791;SDS011;3433;48.730;9.108;2023-03-17T00:52:55;8.50;;;5.33;;
6791;SDS011;3433;48.730;9.108;2023-03-17T00:55:23;9.73;;;5.40;;
6791;SDS011;3433;48.730;9.108;2023-03-17T00:57:53;6.67;;;5.73;;
6791;SDS011;3433;48.730;9.108;2023-03-17T01:00:21;10.47;;;6.00;;
6791;SDS011;3433;48.730;9.108;2023-03-17T01:02:50;9.70;;;6.30;;
6791;SDS011;3433;48.730;9.108;2023-03-17T01:05:19;11.07;;;7.00;;
6791;SDS011;3433;48.730;9.108;2023-03-17T01:07:46;9.40;;;5.30;;
6791;SDS011;3433;48.730;9.108;2023-03-17T01:10:18;10.20;;;5.40;;
6791;SDS011;3433;48.730;9.108;2023-03-17T01:12:46;11.00;;;6.27;;
6791;SDS011;3433;48.730;9.108;2023-03-17T01:15:15;10.33;;;6.00;;
6791;SDS011;3433;48.730;9.108;2023-03-17T01:17:44;10.60;;;5.00;;
6791;SDS011;3433;48.730;9.108;2023-03-17T01:20:14;6.70;;;4.60;;
6791;SDS011;3433;48.730;9.108;2023-03-17T01:22:43;7.70;;;5.23;;
6791;SDS011;3433;48.730;9.108;2023-03-17T01:25:10;9.60;;;5.30;;
6791;SDS011;3433;48.730;9.108;2023-03-17T01:27:37;10.63;;;5.30;;
6791;SDS011;3433;48.730;9.108;2023-03-17T01:30:06;7.40;;;4.43;;
6791;SDS011;3433;48.730;9.108;2023-03-17T01:32:42;6.73;;;4.30;;
6791;SDS011;3433;48.730;9.108;2023-03-17T01:35:09;6.67;;;4.40;;
6791;SDS011;3433;48.730;9.108;2023-03-17T01:37:36;7.03;;;4.27;;
6791;SDS011;3433;48.730;9.108;2023-03-17T01:40:04;7.33;;;4.80;;
6791;SDS011;3433;48.730;9.108;2023-03-17T01:42:31;8.10;;;4.73;;
6791;SDS011;3433;48.730;9.108;2023-03-17T01:44:59;6.20;;;4.07;;
6791;SDS011;3433;48.730;9.108;2023-03-17T01:47:31;4.83;;;3.77;;
6791;SDS011;3433;48.730;9.108;2023-03-17T01:50:03;6.97;;;4.40;;
6791;SDS011;3433;48.730;9.108;2023-03-17T01:52:34;6.40;;;4.30;;
6791;SDS011;3433;48.730;9.108;2023-03-17T01:55:05;4.90;;;3.90;;
6791;SDS011;3433;48.730;9.108;2023-03-17T01:57:35;5.27;;;4.10;;
6791;SDS011;3433;48.730;9.108;2023-03-17T02:00:07;7.33;;;4.20;;
6791;SDS011;3433;48.730;9.108;2023-03-17T02:02:36;6.47;;;4.00;;
6791;SDS011;3433;48.730;9.108;2023-03-17T02:05:08;7.40;;;4.33;;
6791;SDS011;3433;48.730;9.108;2023-03-17T02:07:36;8.60;;;4.53;;
6791;SDS011;3433;48.730;9.108;2023-03-17T02:10:04;6.00;;;3.97;;
6791;SDS011;3433;48.730;9.108;2023-03-17T02:12:32;5.23;;;4.30;;
6791;SDS011;3433;48.730;9.108;2023-03-17T02:15:00;4.80;;;3.93;;
6791;SDS011;3433;48.730;9.108;2023-03-17T02:17:27;7.13;;;4.50;;
6791;SDS011;3433;48.730;9.108;2023-03-17T02:19:55;4.63;;;3.70;;
6791;SDS011;3433;48.730;9.108;2023-03-17T02:22:23;7.03;;;3.80;;
6791;SDS011;3433;48.730;9.108;2023-03-17T02:24:51;4.50;;;3.97;;
6791;SDS011;3433;48.730;9.108;2023-03-17T02:27:23;7.17;;;3.70;;
6791;SDS011;3433;48.730;9.108;2023-03-17T02:29:55;6.00;;;4.10;;
6791;SDS011;3433;48.730;9.108;2023-03-17T02:32:23;5.30;;;3.80;;
6791;SDS011;3433;48.730;9.108;2023-03-17T02:34:50;6.00;;;3.90;;
6791;SDS011;3433;48.730;9.108;2023-03-17T02:37:18;6.20;;;4.23;;
6791;SDS011;3433;48.730;9.108;2023-03-17T02:39:47;5.93;;;4.10;;
6791;SDS011;3433;48.730;9.108;2023-03-17T02:42:14;5.80;;;4.20;;
6791;SDS011;3433;48.730;9.108;2023-03-17T02:44:41;4.93;;;4.10;;
6791;SDS011;3433;48.730;9.108;2023-03-17T02:47:09;6.00;;;3.70;;
6791;SDS011;3433;48.730;9.108;2023-03-17T02:49:36;6.27;;;3.63;;
6791;SDS011;3433;48.730;9.108;2023-03-17T02:52:04;6.00;;;3.63;;
6791;SDS011;3433;48.730;9.108;2023-03-17T02:54:32;3.50;;;3.20;;
6791;SDS011;3433;48.730;9.108;2023-03-17T02:57:01;5.20;;;3.87;;
6791;SDS011;3433;48.730;9.108;2023-03-17T02:59:28;5.30;;;3.53;;
6791;SDS011;3433;48.730;9.108;2023-03-17T03:01:55;7.00;;;3.80;;
6791;SDS011;3433;48.730;9.108;2023-03-17T03:04:22;4.10;;;3.13;;
6791;SDS011;3433;48.730;9.108;2023-03-17T03:06:50;6.27;;;3.87;;
6791;SDS011;3433;48.730;9.108;2023-03-17T03:09:17;4.00;;;3.47;;
6791;SDS011;3433;48.730;9.108;2023-03-17T03:11:44;3.80;;;2.83;;
6791;SDS011;3433;48.730;9.108;2023-03-17T03:14:13;4.37;;;3.30;;
6791;SDS011;3433;48.730;9.108;2023-03-17T03:16:40;4.17;;;3.10;;
6791;SDS011;3433;48.730;9.108;2023-03-17T03:19:07;6.10;;;3.43;;
6791;SDS011;3433;48.730;9.108;2023-03-17T03:21:34;3.87;;;3.30;;
6791;SDS011;3433;48.730;9.108;2023-03-17T03:24:01;3.43;;;3.13;;
6791;SDS011;3433;48.730;9.108;2023-03-17T03:26:32;5.23;;;3.40;;
6791;SDS011;3433;48.730;9.108;2023-03-17T03:28:59;6.00;;;2.90;;
6791;SDS011;3433;48.730;9.108;2023-03-17T03:31:27;3.70;;;3.10;;
6791;SDS011;3433;48.730;9.108;2023-03-17T03:33:54;3.93;;;3.10;;
6791;SDS011;3433;48.730;9.108;2023-03-17T03:36:21;4.10;;;3.13;;
6791;SDS011;3433;48.730;9.108;2023-03-17T03:38:49;5.93;;;3.53;;
6791;SDS011;3433;48.730;9.108;2023-03-17T03:41:17;3.97;;;2.83;;
6791;SDS011;3433;48.730;9.108;2023-03-17T03:43:44;3.37;;;2.83;;
6791;SDS011;3433;48.730;9.108;2023-03-17T03:46:11;3.63;;;3.03;;
6791;SDS011;3433;48.730;9.108;2023-03-17T03:48:41;3.37;;;3.03;;
6791;SDS011;3433;48.730;9.108;2023-03-17T03:51:07;5.70;;;3.20;;
6791;SDS011;3433;48.730;9.108;2023-03-17T03:53:35;4.33;;;2.73;;
6791;SDS011;3433;48.730;9.108;2023-03-17T03:56:01;3.77;;;2.97;;
6791;SDS011;3433;48.730;9.108;2023-03-17T03:58:29;5.47;;;2.90;;
6791;SDS011;3433;48.730;9.108;2023-03-17T04:00:56;3.63;;;3.00;;
6791;SDS011;3433;48.730;9.108;2023-03-17T04:03:23;3.53;;;2.90;;
6791;SDS011;3433;48.730;9.108;2023-03-17T04:05:51;2.83;;;2.53;;
6791;SDS011;3433;48.730;9.108;2023-03-17T04:08:18;3.47;;;2.67;;
6791;SDS011;3433;48.730;9.108;2023-03-17T04:10:45;5.87;;;3.17;;
6791;SDS011;3433;48.730;9.108;2023-03-17T04:13:12;6.80;;;3.30;;
6791;SDS011;3433;48.730;9.108;2023-03-17T04:15:39;5.93;;;2.80;;
6791;SDS011;3433;48.730;9.108;2023-03-17T04:18:06;6.30;;;3.07;;
6791;SDS011;3433;48.730;9.108;2023-03-17T04:20:33;4.57;;;3.00;;
6791;SDS011;3433;48.730;9.108;2023-03-17T04:23:02;4.57;;;3.20;;
6791;SDS011;3433;48.730;9.108;2023-03-17T04:25:29;3.77;;;3.10;;
6791;SDS011;3433;48.730;9.108;2023-03-17T04:27:56;3.03;;;2.73;;
6791;SDS011;3433;48.730;9.108;2023-03-17T04:30:23;5.30;;;2.83;;
6791;SDS011;3433;48.730;9.108;2023-03-17T04:32:50;6.57;;;3.27;;
6791;SDS011;3433;48.730;9.108;2023-03-17T04:35:18;4.17;;;3.30;;
6791;SDS011;3433;48.730;9.108;2023-03-17T04:37:46;3.17;;;2.83;;
6791;SDS011;3433;48.730;9.108;2023-03-17T04:40:15;4.63;;;3.00;;
6791;SDS011;3433;48.730;9.108;2023-03-17T04:42:44;5.20;;;3.00;;
6791;SDS011;3433;48.730;9.108;2023-03-17T04:45:14;3.30;;;2.57;;
6791;SDS011;3433;48.730;9.108;2023-03-17T04:47:41;3.23;;;2.77;;
6791;SDS011;3433;48.730;9.108;2023-03-17T04:50:10;3.10;;;2.30;;
6791;SDS011;3433;48.730;9.108;2023-03-17T04:52:38;5.13;;;2.97;;
6791;SDS011;3433;48.730;9.108;2023-03-17T04:55:06;5.07;;;2.87;;
6791;SDS011;3433;48.730;9.108;2023-03-17T04:57:35;2.60;;;2.23;;
6791;SDS011;3433;48.730;9.108;2023-03-17T05:00:02;3.27;;;2.70;;
6791;SDS011;3433;48.730;9.108;2023-03-17T05:02:30;5.57;;;3.00;;
6791;SDS011;3433;48.730;9.108;2023-03-17T05:04:57;7.90;;;3.60;;
6791;SDS011;3433;48.730;9.108;2023-03-17T05:07:24;4.87;;;3.33;;
6791;SDS011;3433;48.730;9.108;2023-03-17T05:09:51;5.70;;;3.33;;
6791;SDS011;3433;48.730;9.108;2023-03-17T05:12:18;6.17;;;3.20;;
6791;SDS011;3433;48.730;9.108;2023-03-17T05:14:46;3.17;;;2.70;;
6791;SDS011;3433;48.730;9.108;2023-03-17T05:17:13;6.10;;;3.30;;
6791;SDS011;3433;48.730;9.108;2023-03-17T05:19:40;5.37;;;3.37;;
6791;SDS011;3433;48.730;9.108;2023-03-17T05:22:07;4.60;;;3.10;;
6791;SDS011;3433;48.730;9.108;2023-03-17T05:24:34;4.23;;;3.00;;
6791;SDS011;3433;48.730;9.108;2023-03-17T05:27:01;6.57;;;3.20;;
6791;SDS011;3433;48.730;9.108;2023-03-17T05:29:28;4.70;;;2.97;;
6791;SDS011;3433;48.730;9.108;2023-03-17T05:31:56;3.73;;;3.10;;
6791;SDS011;3433;48.730;9.108;2023-03-17T05:34:23;5.53;;;3.07;;
6791;SDS011;3433;48.730;9.108;2023-03-17T05:36:51;4.77;;;3.80;;
6791;SDS011;3433;48.730;9.108;2023-03-17T05:39:18;4.57;;;3.00;;
6791;SDS011;3433;48.730;9.108;2023-03-17T05:41:45;4.27;;;3.23;;
6791;SDS011;3433;48.730;9.108;2023-03-17T05:44:12;3.40;;;3.00;;
6791;SDS011;3433;48.730;9.108;2023-03-17T05:46:40;3.42;;;2.70;;
6791;SDS011;3433;48.730;9.108;2023-03-17T05:49:08;6.37;;;3.67;;
6791;SDS011;3433;48.730;9.108;2023-03-17T05:51:35;7.67;;;3.53;;
6791;SDS011;3433;48.730;9.108;2023-03-17T05:54:02;4.17;;;2.90;;
6791;SDS011;3433;48.730;9.108;2023-03-17T05:56:29;4.77;;;3.40;;
6791;SDS011;3433;48.730;9.108;2023-03-17T05:58:57;6.07;;;3.33;;
6791;SDS011;3433;48.730;9.108;2023-03-17T06:01:25;4.20;;;2.97;;
6791;SDS011;3433;48.730;9.108;2023-03-17T06:03:52;3.97;;;3.00;;
6791;SDS011;3433;48.730;9.108;2023-03-17T06:06:20;4.43;;;3.10;;
6791;SDS011;3433;48.730;9.108;2023-03-17T06:08:48;5.17;;;4.27;;
6791;SDS011;3433;48.730;9.108;2023-03-17T06:11:15;5.17;;;3.20;;
6791;SDS011;3433;48.730;9.108;2023-03-17T06:13:44;11.87;;;3.70;;
6791;SDS011;3433;48.730;9.108;2023-03-17T06:16:11;5.80;;;3.20;;
6791;SDS011;3433;48.730;9.108;2023-03-17T06:18:38;5.13;;;3.57;;
6791;SDS011;3433;48.730;9.108;2023-03-17T06:21:05;5.93;;;3.40;;
6791;SDS011;3433;48.730;9.108;2023-03-17T06:23:33;9.50;;;3.23;;
6791;SDS011;3433;48.730;9.108;2023-03-17T06:26:00;9.63;;;3.60;;
6791;SDS011;3433;48.730;9.108;2023-03-17T06:28:27;5.17;;;3.60;;
6791;SDS011;3433;48.730;9.108;2023-03-17T06:30:54;5.53;;;4.90;;
6791;SDS011;3433;48.730;9.108;2023-03-17T06:33:22;5.70;;;3.77;;
6791;SDS011;3433;48.730;9.108;2023-03-17T06:35:49;7.10;;;3.87;;
6791;SDS011;3433;48.730;9.108;2023-03-17T06:38:16;6.03;;;3.40;;
6791;SDS011;3433;48.730;9.108;2023-03-17T06:40:46;4.90;;;3.50;;
6791;SDS011;3433;48.730;9.108;2023-03-17T06:43:13;6.80;;;4.07;;
6791;SDS011;3433;48.730;9.108;2023-03-17T06:45:40;3.83;;;2.67;;
6791;SDS011;3433;48.730;9.108;2023-03-17T06:48:07;3.20;;;2.70;;
6791;SDS011;3433;48.730;9.108;2023-03-17T06:50:33;4.50;;;2.80;;
6791;SDS011;3433;48.730;9.108;2023-03-17T06:53:01;4.90;;;3.10;;
6791;SDS011;3433;48.730;9.108;2023-03-17T06:55:28;5.00;;;3.07;;
6791;SDS011;3433;48.730;9.108;2023-03-17T06:57:58;5.20;;;3.23;;
6791;SDS011;3433;48.730;9.108;2023-03-17T07:00:27;3.67;;;2.50;;
6791;SDS011;3433;48.730;9.108;2023-03-17T07:02:54;4.03;;;2.57;;
6791;SDS011;3433;48.730;9.108;2023-03-17T07:05:21;3.03;;;1.97;;
6791;SDS011;3433;48.730;9.108;2023-03-17T07:07:48;5.20;;;2.70;;
6791;SDS011;3433;48.730;9.108;2023-03-17T07:10:15;4.60;;;2.73;;
6791;SDS011;3433;48.730;9.108;2023-03-17T07:12:43;2.63;;;1.93;;
6791;SDS011;3433;48.730;9.108;2023-03-17T07:15:12;4.63;;;2.80;;
6791;SDS011;3433;48.730;9.108;2023-03-17T07:17:39;3.33;;;2.10;;
6791;SDS011;3433;48.730;9.108;2023-03-17T07:20:07;3.80;;;2.50;;
6791;SDS011;3433;48.730;9.108;2023-03-17T07:22:35;2.53;;;2.33;;
6791;SDS011;3433;48.730;9.108;2023-03-17T07:25:02;5.17;;;3.67;;
6791;SDS011;3433;48.730;9.108;2023-03-17T07:27:30;4.63;;;3.17;;
6791;SDS011;3433;48.730;9.108;2023-03-17T07:29:56;4.07;;;3.40;;
6791;SDS011;3433;48.730;9.108;2023-03-17T07:32:27;4.40;;;2.77;;
6791;SDS011;3433;48.730;9.108;2023-03-17T07:34:54;5.90;;;2.97;;
6791;SDS011;3433;48.730;9.108;2023-03-17T07:37:23;6.10;;;2.60;;
6791;SDS011;3433;48.730;9.108;2023-03-17T07:39:50;4.30;;;2.57;;
6791;SDS011;3433;48.730;9.108;2023-03-17T07:42:17;5.67;;;3.30;;
6791;SDS011;3433;48.730;9.108;2023-03-17T07:44:44;4.77;;;3.40;;
6791;SDS011;3433;48.730;9.108;2023-03-17T07:47:10;3.90;;;2.90;;
6791;SDS011;3433;48.730;9.108;2023-03-17T07:49:40;2.77;;;2.53;;
6791;SDS011;3433;48.730;9.108;2023-03-17T07:52:07;3.30;;;2.83;;
6791;SDS011;3433;48.730;9.108;2023-03-17T07:54:34;3.10;;;2.60;;
6791;SDS011;3433;48.730;9.108;2023-03-17T07:57:02;4.37;;;2.90;;
6791;SDS011;3433;48.730;9.108;2023-03-17T07:59:29;4.40;;;2.47;;
6791;SDS011;3433;48.730;9.108;2023-03-17T08:01:56;3.67;;;3.10;;
6791;SDS011;3433;48.730;9.108;2023-03-17T08:04:25;3.03;;;2.47;;
6791;SDS011;3433;48.730;9.108;2023-03-17T08:06:53;2.87;;;2.20;;
6791;SDS011;3433;48.730;9.108;2023-03-17T08:09:21;2.87;;;2.50;;
6791;SDS011;3433;48.730;9.108;2023-03-17T08:11:48;3.07;;;2.40;;
6791;SDS011;3433;48.730;9.108;2023-03-17T08:14:15;2.67;;;2.47;;
6791;SDS011;3433;48.730;9.108;2023-03-17T08:16:42;4.20;;;2.40;;
6791;SDS011;3433;48.730;9.108;2023-03-17T08:19:09;3.83;;;2.53;;
6791;SDS011;3433;48.730;9.108;2023-03-17T08:21:36;6.80;;;2.10;;
6791;SDS011;3433;48.730;9.108;2023-03-17T08:24:04;2.90;;;2.20;;
6791;SDS011;3433;48.730;9.108;2023-03-17T08:26:32;4.13;;;2.47;;
6791;SDS011;3433;48.730;9.108;2023-03-17T08:28:59;4.50;;;2.30;;
6791;SDS011;3433;48.730;9.108;2023-03-17T08:31:26;7.07;;;2.83;;
6791;SDS011;3433;48.730;9.108;2023-03-17T08:33:53;3.50;;;2.27;;
6791;SDS011;3433;48.730;9.108;2023-03-17T08:36:21;2.60;;;1.60;;
6791;SDS011;3433;48.730;9.108;2023-03-17T08:38:50;2.43;;;1.67;;
6791;SDS011;3433;48.730;9.108;2023-03-17T08:41:19;1.67;;;1.37;;
6791;SDS011;3433;48.730;9.108;2023-03-17T08:43:48;2.87;;;2.63;;
6791;SDS011;3433;48.730;9.108;2023-03-17T08:46:16;2.30;;;1.40;;
6791;SDS011;3433;48.730;9.108;2023-03-17T08:48:45;2.90;;;1.80;;
6791;SDS011;3433;48.730;9.108;2023-03-17T08:51:15;3.37;;;1.77;;
6791;SDS011;3433;48.730;9.108;2023-03-17T08:53:43;3.67;;;1.77;;
6791;SDS011;3433;48.730;9.108;2023-03-17T08:56:10;1.73;;;1.53;;
6791;SDS011;3433;48.730;9.108;2023-03-17T08:58:39;2.60;;;2.07;;
6791;SDS011;3433;48.730;9.108;2023-03-17T09:01:07;2.43;;;1.80;;
6791;SDS011;3433;48.730;9.108;2023-03-17T09:03:35;2.93;;;2.33;;
6791;SDS011;3433;48.730;9.108;2023-03-17T09:06:03;3.27;;;1.60;;
6791;SDS011;3433;48.730;9.108;2023-03-17T09:08:31;1.93;;;1.30;;
6791;SDS011;3433;48.730;9.108;2023-03-17T09:10:58;8.63;;;5.67;;
6791;SDS011;3433;48.730;9.108;2023-03-17T09:13:26;3.30;;;1.83;;
6791;SDS011;3433;48.730;9.108;2023-03-17T09:15:54;1.77;;;1.63;;
6791;SDS011;3433;48.730;9.108;2023-03-17T09:18:21;5.23;;;1.70;;
6791;SDS011;3433;48.730;9.108;2023-03-17T09:20:48;2.17;;;1.53;;
6791;SDS011;3433;48.730;9.108;2023-03-17T09:23:15;3.23;;;2.60;;
6791;SDS011;3433;48.730;9.108;2023-03-17T09:25:42;7.00;;;3.47;;
6791;SDS011;3433;48.730;9.108;2023-03-17T09:28:10;2.80;;;1.90;;
6791;SDS011;3433;48.730;9.108;2023-03-17T09:30:39;3.07;;;1.70;;
6791;SDS011;3433;48.730;9.108;2023-03-17T09:33:08;2.13;;;1.67;;
6791;SDS011;3433;48.730;9.108;2023-03-17T09:35:36;7.00;;;5.80;;
6791;SDS011;3433;48.730;9.108;2023-03-17T09:38:04;5.87;;;2.10;;
6791;SDS011;3433;48.730;9.108;2023-03-17T09:40:32;1.73;;;1.63;;
6791;SDS011;3433;48.730;9.108;2023-03-17T09:43:06;2.80;;;1.30;;
6791;SDS011;3433;48.730;9.108;2023-03-17T09:45:41;1.60;;;1.30;;
6791;SDS011;3433;48.730;9.108;2023-03-17T09:48:13;2.93;;;1.63;;
6791;SDS011;3433;48.730;9.108;2023-03-17T09:50:51;3.10;;;1.30;;
6791;SDS011;3433;48.730;9.108;2023-03-17T09:53:22;1.60;;;1.33;;
6791;SDS011;3433;48.730;9.108;2023-03-17T09:55:54;3.87;;;1.80;;
6791;SDS011;3433;48.730;9.108;2023-03-17T09:58:25;3.93;;;1.90;;
6791;SDS011;3433;48.730;9.108;2023-03-17T10:00:55;2.57;;;1.87;;
6791;SDS011;3433;48.730;9.108;2023-03-17T10:03:25;4.13;;;1.70;;
6791;SDS011;3433;48.730;9.108;2023-03-17T10:05:52;2.00;;;1.80;;
6791;SDS011;3433;48.730;9.108;2023-03-17T10:08:25;4.83;;;1.93;;
6791;SDS011;3433;48.730;9.108;2023-03-17T10:10:57;2.83;;;1.80;;
6791;SDS011;3433;48.730;9.108;2023-03-17T10:13:37;3.60;;;2.50;;
6791;SDS011;3433;48.730;9.108;2023-03-17T10:16:12;2.00;;;1.77;;
6791;SDS011;3433;48.730;9.108;2023-03-17T10:18:44;4.93;;;2.20;;
6791;SDS011;3433;48.730;9.108;2023-03-17T10:21:16;2.63;;;1.70;;
6791;SDS011;3433;48.730;9.108;2023-03-17T10:23:48;3.17;;;2.20;;
6791;SDS011;3433;48.730;9.108;2023-03-17T10:26:25;3.27;;;2.03;;
6791;SDS011;3433;48.730;9.108;2023-03-17T10:28:55;2.63;;;1.70;;
6791;SDS011;3433;48.730;9.108;2023-03-17T10:31:26;1.87;;;1.70;;
6791;SDS011;3433;48.730;9.108;2023-03-17T10:34:00;2.73;;;1.60;;
6791;SDS011;3433;48.730;9.108;2023-03-17T10:36:39;3.23;;;1.40;;
6791;SDS011;3433;48.730;9.108;2023-03-17T10:39:10;2.80;;;1.47;;
6791;SDS011;3433;48.730;9.108;2023-03-17T10:41:39;5.77;;;1.77;;
6791;SDS011;3433;48.730;9.108;2023-03-17T10:44:20;1.43;;;1.23;;
6791;SDS011;3433;48.730;9.108;2023-03-17T10:46:52;4.20;;;1.90;;
6791;SDS011;3433;48.730;9.108;2023-03-17T10:49:21;3.43;;;2.53;;
6791;SDS011;3433;48.730;9.108;2023-03-17T10:51:51;2.30;;;1.70;;
6791;SDS011;3433;48.730;9.108;2023-03-17T10:54:20;2.00;;;1.50;;
6791;SDS011;3433;48.730;9.108;2023-03-17T10:56:54;1.63;;;1.53;;
6791;SDS011;3433;48.730;9.108;2023-03-17T10:59:26;2.87;;;1.30;;
6791;SDS011;3433;48.730;9.108;2023-03-17T11:01:56;2.30;;;1.30;;
6791;SDS011;3433;48.730;9.108;2023-03-17T11:04:27;1.30;;;1.20;;
6791;SDS011;3433;48.730;9.108;2023-03-17T11:06:55;1.73;;;1.50;;
6791;SDS011;3433;48.730;9.108;2023-03-17T11:09:23;1.43;;;1.33;;
6791;SDS011;3433;48.730;9.108;2023-03-17T11:12:02;2.03;;;1.30;;
6791;SDS011;3433;48.730;9.108;2023-03-17T11:14:31;2.03;;;1.63;;
6791;SDS011;3433;48.730;9.108;2023-03-17T11:17:00;2.07;;;1.50;;
6791;SDS011;3433;48.730;9.108;2023-03-17T11:19:32;1.93;;;1.67;;
6791;SDS011;3433;48.730;9.108;2023-03-17T11:22:06;1.83;;;1.40;;
6791;SDS011;3433;48.730;9.108;2023-03-17T11:24:37;1.67;;;1.40;;
6791;SDS011;3433;48.730;9.108;2023-03-17T11:27:11;2.27;;;1.60;;
6791;SDS011;3433;48.730;9.108;2023-03-17T11:29:48;2.97;;;1.73;;
6791;SDS011;3433;48.730;9.108;2023-03-17T11:32:25;2.90;;;2.03;;
6791;SDS011;3433;48.730;9.108;2023-03-17T11:37:57;2.80;;;2.03;;
6791;SDS011;3433;48.730;9.108;2023-03-17T11:40:37;3.43;;;1.70;;
6791;SDS011;3433;48.730;9.108;2023-03-17T11:43:17;4.37;;;1.87;;
6791;SDS011;3433;48.730;9.108;2023-03-17T11:45:52;2.30;;;2.10;;
6791;SDS011;3433;48.730;9.108;2023-03-17T11:48:29;2.50;;;2.30;;
6791;SDS011;3433;48.730;9.108;2023-03-17T11:51:08;3.90;;;2.20;;
6791;SDS011;3433;48.730;9.108;2023-03-17T11:53:48;4.50;;;2.30;;
6791;SDS011;3433;48.730;9.108;2023-03-17T11:56:22;3.90;;;2.40;;
6791;SDS011;3433;48.730;9.108;2023-03-17T11:58:54;5.87;;;2.27;;
6791;SDS011;3433;48.730;9.108;2023-03-17T12:01:27;6.33;;;2.37;;
6791;SDS011;3433;48.730;9.108;2023-03-17T12:04:02;2.70;;;2.10;;
6791;SDS011;3433;48.730;9.108;2023-03-17T12:06:38;2.97;;;2.17;;
6791;SDS011;3433;48.730;9.108;2023-03-17T12:09:14;3.37;;;2.00;;
6791;SDS011;3433;48.730;9.108;2023-03-17T12:11:49;3.83;;;2.30;;
6791;SDS011;3433;48.730;9.108;2023-03-17T12:14:20;2.30;;;1.70;;
6791;SDS011;3433;48.730;9.108;2023-03-17T12:16:53;4.23;;;2.63;;
6791;SDS011;3433;48.730;9.108;2023-03-17T12:19:32;5.67;;;3.20;;
6791;SDS011;3433;48.730;9.108;2023-03-17T12:22:06;2.40;;;1.60;;
6791;SDS011;3433;48.730;9.108;2023-03-17T12:24:41;3.80;;;2.07;;
6791;SDS011;3433;48.730;9.108;2023-03-17T12:27:14;3.40;;;1.97;;
6791;SDS011;3433;48.730;9.108;2023-03-17T12:29:48;3.63;;;2.07;;
6791;SDS011;3433;48.730;9.108;2023-03-17T12:32:20;2.10;;;1.50;;
6791;SDS011;3433;48.730;9.108;2023-03-17T12:34:50;2.27;;;2.07;;
6791;SDS011;3433;48.730;9.108;2023-03-17T12:37:20;2.60;;;2.27;;
6791;SDS011;3433;48.730;9.108;2023-03-17T12:39:50;1.63;;;1.53;;
6791;SDS011;3433;48.730;9.108;2023-03-17T12:42:32;1.90;;;1.67;;
6791;SDS011;3433;48.730;9.108;2023-03-17T12:45:16;6.00;;;1.80;;
6791;SDS011;3433;48.730;9.108;2023-03-17T12:47:56;3.67;;;1.90;;
6791;SDS011;3433;48.730;9.108;2023-03-17T12:53:35;2.83;;;2.07;;
6791;SDS011;3433;48.730;9.108;2023-03-17T12:56:07;2.43;;;2.10;;
6791;SDS011;3433;48.730;9.108;2023-03-17T12:58:38;2.90;;;2.23;;
6791;SDS011;3433;48.730;9.108;2023-03-17T13:01:13;5.00;;;2.30;;
6791;SDS011;3433;48.730;9.108;2023-03-17T13:03:45;2.53;;;2.10;;
6791;SDS011;3433;48.730;9.108;2023-03-17T13:06:22;3.30;;;1.70;;
6791;SDS011;3433;48.730;9.108;2023-03-17T13:08:51;4.60;;;2.40;;
6791;SDS011;3433;48.730;9.108;2023-03-17T13:11:24;5.80;;;2.10;;
6791;SDS011;3433;48.730;9.108;2023-03-17T13:14:05;4.27;;;2.17;;
6791;SDS011;3433;48.730;9.108;2023-03-17T13:16:39;3.30;;;2.30;;
6791;SDS011;3433;48.730;9.108;2023-03-17T13:19:13;3.00;;;1.90;;
6791;SDS011;3433;48.730;9.108;2023-03-17T13:21:48;3.50;;;1.60;;
6791;SDS011;3433;48.730;9.108;2023-03-17T13:24:22;1.90;;;1.63;;
6791;SDS011;3433;48.730;9.108;2023-03-17T13:27:11;5.67;;;2.43;;
6791;SDS011;3433;48.730;9.108;2023-03-17T13:29:45;2.83;;;1.90;;
6791;SDS011;3433;48.730;9.108;2023-03-17T13:32:32;3.10;;;1.80;;
6791;SDS011;3433;48.730;9.108;2023-03-17T13:35:16;2.40;;;1.70;;
6791;SDS011;3433;48.730;9.108;2023-03-17T13:41:14;3.50;;;2.47;;
6791;SDS011;3433;48.730;9.108;2023-03-17T13:43:54;3.87;;;2.30;;
6791;SDS011;3433;48.730;9.108;2023-03-17T13:46:37;3.20;;;2.30;;
6791;SDS011;3433;48.730;9.108;2023-03-17T13:49:13;3.97;;;2.00;;
6791;SDS011;3433;48.730;9.108;2023-03-17T13:51:48;3.33;;;1.80;;
6791;SDS011;3433;48.730;9.108;2023-03-17T13:54:28;2.20;;;1.63;;
6791;SDS011;3433;48.730;9.108;2023-03-17T13:56:58;5.27;;;1.67;;
6791;SDS011;3433;48.730;9.108;2023-03-17T13:59:52;2.13;;;1.70;;
6791;SDS011;3433;48.730;9.108;2023-03-17T14:02:22;2.10;;;1.40;;
6791;SDS011;3433;48.730;9.108;2023-03-17T14:04:53;1.90;;;1.70;;
6791;SDS011;3433;48.730;9.108;2023-03-17T14:07:22;3.77;;;2.17;;
6791;SDS011;3433;48.730;9.108;2023-03-17T14:09:55;3.60;;;1.60;;
6791;SDS011;3433;48.730;9.108;2023-03-17T14:12:27;2.37;;;1.63;;
6791;SDS011;3433;48.730;9.108;2023-03-17T14:15:02;1.30;;;1.20;;
6791;SDS011;3433;48.730;9.108;2023-03-17T14:17:33;3.77;;;1.97;;
6791;SDS011;3433;48.730;9.108;2023-03-17T14:20:17;2.83;;;2.20;;
6791;SDS011;3433;48.730;9.108;2023-03-17T14:22:47;2.20;;;2.00;;
6791;SDS011;3433;48.730;9.108;2023-03-17T14:25:19;3.10;;;1.63;;
6791;SDS011;3433;48.730;9.108;2023-03-17T14:27:50;5.20;;;1.63;;
6791;SDS011;3433;48.730;9.108;2023-03-17T14:30:18;5.80;;;1.60;;
6791;SDS011;3433;48.730;9.108;2023-03-17T14:32:47;2.80;;;1.40;;
6791;SDS011;3433;48.730;9.108;2023-03-17T14:35:17;2.40;;;1.57;;
6791;SDS011;3433;48.730;9.108;2023-03-17T14:37:45;2.13;;;1.50;;
6791;SDS011;3433;48.730;9.108;2023-03-17T14:40:19;3.10;;;1.60;;
6791;SDS011;3433;48.730;9.108;2023-03-17T14:42:47;1.60;;;1.37;;
6791;SDS011;3433;48.730;9.108;2023-03-17T14:45:18;3.57;;;1.60;;
6791;SDS011;3433;48.730;9.108;2023-03-17T14:47:47;2.03;;;1.80;;
6791;SDS011;3433;48.730;9.108;2023-03-17T14:50:16;2.73;;;1.57;;
6791;SDS011;3433;48.730;9.108;2023-03-17T14:52:48;2.23;;;1.43;;
6791;SDS011;3433;48.730;9.108;2023-03-17T14:55:15;3.87;;;1.40;;
6791;SDS011;3433;48.730;9.108;2023-03-17T14:57:46;4.07;;;1.50;;
6791;SDS011;3433;48.730;9.108;2023-03-17T15:00:25;1.90;;;1.40;;
6791;SDS011;3433;48.730;9.108;2023-03-17T15:03:00;4.10;;;1.47;;
6791;SDS011;3433;48.730;9.108;2023-03-17T15:05:35;12.13;;;2.17;;
6791;SDS011;3433;48.730;9.108;2023-03-17T15:11:01;3.43;;;1.53;;
6791;SDS011;3433;48.730;9.108;2023-03-17T15:13:33;4.90;;;2.20;;
6791;SDS011;3433;48.730;9.108;2023-03-17T15:16:04;4.00;;;1.80;;
6791;SDS011;3433;48.730;9.108;2023-03-17T15:18:34;3.43;;;1.60;;
6791;SDS011;3433;48.730;9.108;2023-03-17T15:21:02;5.20;;;1.80;;
6791;SDS011;3433;48.730;9.108;2023-03-17T15:23:29;2.90;;;2.47;;
6791;SDS011;3433;48.730;9.108;2023-03-17T15:26:05;4.43;;;2.20;;
6791;SDS011;3433;48.730;9.108;2023-03-17T15:28:47;7.40;;;2.40;;
6791;SDS011;3433;48.730;9.108;2023-03-17T15:31:14;3.83;;;2.47;;
6791;SDS011;3433;48.730;9.108;2023-03-17T15:33:41;4.07;;;2.53;;
6791;SDS011;3433;48.730;9.108;2023-03-17T15:36:11;4.60;;;2.10;;
6791;SDS011;3433;48.730;9.108;2023-03-17T15:38:41;3.23;;;1.80;;
6791;SDS011;3433;48.730;9.108;2023-03-17T15:41:08;7.43;;;2.40;;
6791;SDS011;3433;48.730;9.108;2023-03-17T15:43:35;2.77;;;1.70;;